createdAt,value
2017-07-04T00:01:40.715Z,16.70
2017-07-04T00:04:09.713Z,16.70
2017-07-04T00:06:39.632Z,16.70
2017-07-04T00:09:08.634Z,16.70
2017-07-04T00:11:37.622Z,16.70
2017-07-04T00:14:06.609Z,16.70
2017-07-04T00:16:35.654Z,16.60
2017-07-04T00:19:04.605Z,16.70
2017-07-04T00:21:33.549Z,16.60
2017-07-04T00:24:02.841Z,16.60
2017-07-04T00:26:31.860Z,16.60
2017-07-04T00:29:00.839Z,16.60
2017-07-04T00:31:29.850Z,16.60
2017-07-04T00:33:58.859Z,16.60
2017-07-04T00:36:27.848Z,16.60
2017-07-04T00:38:56.882Z,16.50
2017-07-04T00:41:25.834Z,16.50
2017-07-04T00:43:54.830Z,16.50
2017-07-04T00:46:23.812Z,16.50
2017-07-04T00:48:52.756Z,16.40
2017-07-04T00:51:21.808Z,16.40
2017-07-04T00:53:50.768Z,16.30
2017-07-04T00:56:19.846Z,16.30
2017-07-04T00:58:48.855Z,16.20
2017-07-04T01:01:20.814Z,16.20
2017-07-04T01:03:49.845Z,16.20
2017-07-04T01:06:18.801Z,16.30
2017-07-04T01:08:47.745Z,16.30
2017-07-04T01:11:16.747Z,16.20
2017-07-04T01:13:45.706Z,16.20
2017-07-04T01:16:14.709Z,16.10
2017-07-04T01:18:43.739Z,16.00
2017-07-04T01:21:12.711Z,15.90
2017-07-04T01:23:41.684Z,15.80
2017-07-04T01:26:10.929Z,15.70
2017-07-04T01:28:39.930Z,15.60
2017-07-04T01:31:08.975Z,15.50
2017-07-04T01:33:37.968Z,15.40
2017-07-04T01:36:06.957Z,15.30
2017-07-04T01:38:35.982Z,15.20
2017-07-04T01:41:04.933Z,15.20
2017-07-04T01:43:33.957Z,15.10
2017-07-04T01:46:02.978Z,15.00
2017-07-04T01:48:31.998Z,14.90
2017-07-04T01:51:00.996Z,14.90
2017-07-04T01:53:30.004Z,14.80
2017-07-04T01:55:59.002Z,14.60
2017-07-04T01:58:27.991Z,14.50
2017-07-04T02:00:57.000Z,14.40
2017-07-04T02:03:25.991Z,14.40
2017-07-04T02:05:54.993Z,14.30
2017-07-04T02:08:23.967Z,14.30
2017-07-04T02:10:52.956Z,14.30
2017-07-04T02:13:21.938Z,14.30
2017-07-04T02:15:50.922Z,14.20
2017-07-04T02:18:20.236Z,14.30
2017-07-04T02:20:49.304Z,14.30
2017-07-04T02:23:18.320Z,14.30
2017-07-04T02:25:47.279Z,14.30
2017-07-04T02:28:16.262Z,14.30
2017-07-04T02:30:45.220Z,14.20
2017-07-04T02:33:14.176Z,14.20
2017-07-04T02:35:49.556Z,14.10
2017-07-04T02:38:18.530Z,14.10
2017-07-04T02:40:47.518Z,14.00
2017-07-04T02:43:16.617Z,14.00
2017-07-04T02:45:45.628Z,13.90
2017-07-04T02:48:14.708Z,13.80
2017-07-04T02:50:43.710Z,13.70
2017-07-04T02:53:12.715Z,13.60
2017-07-04T02:55:41.714Z,13.60
2017-07-04T02:59:12.974Z,13.50
2017-07-04T03:01:41.992Z,13.40
2017-07-04T03:04:11.309Z,13.50
2017-07-04T03:06:40.686Z,13.40
2017-07-04T03:09:09.932Z,13.50
2017-07-04T03:11:38.928Z,13.50
2017-07-04T03:15:27.028Z,13.50
2017-07-04T03:17:56.365Z,13.50
2017-07-04T03:20:25.335Z,13.60
2017-07-04T03:22:54.344Z,13.60
2017-07-04T03:25:23.346Z,13.60
2017-07-04T03:27:52.413Z,13.60
2017-07-04T03:30:21.439Z,13.60
2017-07-04T03:32:50.438Z,13.60
2017-07-04T03:35:19.437Z,13.60
2017-07-04T03:37:48.417Z,13.70
2017-07-04T03:40:17.353Z,13.60
2017-07-04T03:42:46.325Z,13.60
2017-07-04T03:45:15.293Z,13.70
2017-07-04T03:47:44.301Z,13.60
2017-07-04T03:50:13.269Z,13.60
2017-07-04T03:52:42.530Z,13.70
2017-07-04T03:55:12.225Z,13.80
2017-07-04T03:57:41.273Z,13.80
2017-07-04T04:00:10.973Z,13.90
2017-07-04T04:02:39.965Z,13.90
2017-07-04T04:05:09.276Z,14.00
2017-07-04T04:07:38.270Z,14.00
2017-07-04T04:10:07.225Z,14.10
2017-07-04T04:12:36.161Z,14.10
2017-07-04T04:15:05.148Z,14.20
2017-07-04T04:17:34.212Z,14.30
2017-07-04T04:20:03.277Z,14.40
2017-07-04T04:22:32.272Z,14.50
2017-07-04T04:25:01.278Z,14.50
2017-07-04T04:27:30.257Z,14.60
2017-07-04T04:29:59.231Z,14.60
2017-07-04T04:32:28.231Z,14.70
2017-07-04T04:34:57.254Z,14.70
2017-07-04T04:37:26.239Z,14.80
2017-07-04T04:39:55.226Z,15.00
2017-07-04T04:42:24.234Z,15.20
2017-07-04T04:44:53.329Z,15.30
2017-07-04T04:47:22.401Z,15.60
2017-07-04T04:49:51.369Z,15.90
2017-07-04T04:52:20.370Z,16.40
2017-07-04T04:54:49.372Z,16.90
2017-07-04T04:57:18.693Z,17.30
2017-07-04T04:59:47.766Z,17.80
2017-07-04T05:02:16.726Z,18.10
2017-07-04T05:04:45.744Z,18.50
2017-07-04T05:07:14.764Z,18.50
2017-07-04T05:09:43.762Z,18.90
2017-07-04T05:12:13.146Z,19.20
2017-07-04T05:14:42.166Z,19.60
2017-07-04T05:17:11.183Z,19.70
2017-07-04T05:19:40.150Z,20.30
2017-07-04T05:22:09.212Z,20.50
2017-07-04T05:24:38.182Z,20.50
2017-07-04T05:27:07.273Z,20.50
2017-07-04T05:29:36.266Z,20.90
2017-07-04T05:32:05.229Z,20.90
2017-07-04T05:34:34.253Z,21.10
2017-07-04T05:37:03.217Z,21.30
2017-07-04T05:39:32.257Z,21.00
2017-07-04T05:42:01.182Z,20.90
2017-07-04T05:44:30.326Z,20.60
2017-07-04T05:46:59.311Z,20.60
2017-07-04T05:49:28.277Z,20.50
2017-07-04T05:51:57.212Z,20.60
2017-07-04T05:54:26.231Z,20.70
2017-07-04T05:56:55.249Z,21.10
2017-07-04T05:59:24.271Z,21.40
2017-07-04T06:01:53.640Z,21.70
2017-07-04T06:04:22.681Z,21.80
2017-07-04T06:06:51.722Z,21.60
2017-07-04T06:09:20.739Z,21.60
2017-07-04T06:11:49.898Z,21.50
2017-07-04T06:14:18.976Z,21.30
2017-07-04T06:16:47.965Z,21.40
2017-07-04T06:19:17.045Z,21.20
2017-07-04T06:21:46.186Z,21.30
2017-07-04T06:24:15.339Z,21.10
2017-07-04T06:26:44.497Z,20.60
2017-07-04T06:29:13.858Z,20.20
2017-07-04T06:31:42.967Z,20.10
2017-07-04T06:34:12.139Z,20.20
2017-07-04T06:36:42.440Z,20.60
2017-07-04T06:39:11.498Z,20.70
2017-07-04T06:41:40.499Z,21.40
2017-07-04T06:44:10.101Z,22.60
2017-07-04T06:46:39.161Z,23.20
2017-07-04T06:49:08.626Z,23.20
2017-07-04T06:51:37.647Z,23.70
2017-07-04T06:54:06.892Z,23.70
2017-07-04T06:56:35.913Z,23.60
2017-07-04T06:59:05.673Z,23.70
2017-07-04T07:01:34.746Z,23.30
2017-07-04T07:04:03.747Z,23.00
2017-07-04T07:06:32.822Z,22.60
2017-07-04T07:09:01.850Z,22.70
2017-07-04T07:11:31.000Z,23.30
2017-07-04T07:13:59.993Z,24.30
2017-07-04T07:16:28.984Z,24.40
2017-07-04T07:18:57.932Z,24.10
2017-07-04T07:21:26.978Z,23.90
2017-07-04T07:23:56.300Z,23.40
2017-07-04T07:26:25.555Z,23.00
2017-07-04T07:28:54.651Z,22.80
2017-07-04T07:31:23.765Z,22.40
2017-07-04T07:33:52.813Z,22.00
2017-07-04T07:36:22.274Z,21.60
2017-07-04T07:38:51.455Z,21.00
2017-07-04T07:41:20.489Z,20.70
2017-07-04T07:43:49.495Z,20.60
2017-07-04T07:46:18.496Z,20.40
2017-07-04T07:48:47.479Z,21.00
2017-07-04T07:51:16.458Z,22.00
2017-07-04T07:53:45.442Z,22.60
2017-07-04T07:56:14.418Z,22.30
2017-07-04T07:58:43.405Z,21.90
2017-07-04T08:01:12.560Z,21.70
2017-07-04T08:03:41.631Z,22.30
2017-07-04T08:06:10.624Z,22.50
2017-07-04T08:08:39.661Z,22.10
2017-07-04T08:11:08.702Z,21.70
2017-07-04T08:13:37.702Z,21.10
2017-07-04T08:16:06.664Z,20.50
2017-07-04T08:18:35.661Z,20.20
2017-07-04T08:21:05.034Z,19.70
2017-07-04T08:23:34.072Z,19.50
2017-07-04T08:26:03.093Z,19.40
2017-07-04T08:28:32.185Z,19.80
2017-07-04T08:31:01.266Z,20.30
2017-07-04T08:33:32.201Z,20.70
2017-07-04T08:36:01.218Z,21.10
2017-07-04T08:38:30.248Z,21.40
2017-07-04T08:40:59.259Z,22.00
2017-07-04T08:43:28.271Z,22.20
2017-07-04T08:45:57.259Z,22.10
2017-07-04T08:48:26.229Z,21.90
2017-07-04T08:50:55.276Z,21.60
2017-07-04T08:53:24.262Z,21.30
2017-07-04T08:55:53.353Z,20.90
2017-07-04T08:58:22.402Z,20.50
2017-07-04T09:00:51.910Z,20.10
2017-07-04T09:03:21.046Z,19.80
2017-07-04T09:05:50.117Z,19.70
2017-07-04T09:08:19.234Z,19.40
2017-07-04T09:10:48.347Z,19.40
2017-07-04T09:13:17.518Z,19.50
2017-07-04T09:15:46.513Z,19.80
2017-07-04T09:18:15.476Z,19.90
2017-07-04T09:20:44.536Z,19.90
2017-07-04T09:23:13.605Z,19.90
2017-07-04T09:25:42.695Z,20.10
2017-07-04T09:28:12.084Z,20.30
2017-07-04T09:30:41.277Z,20.50
2017-07-04T09:33:10.314Z,20.40
2017-07-04T09:35:39.569Z,20.50
2017-07-04T09:38:08.584Z,20.70
2017-07-04T09:40:37.580Z,20.80
2017-07-04T09:43:06.567Z,21.40
2017-07-04T09:45:35.640Z,22.50
2017-07-04T09:48:04.605Z,24.20
2017-07-04T09:50:33.594Z,26.00
2017-07-04T09:53:02.804Z,27.30
2017-07-04T09:55:38.172Z,27.30
2017-07-04T09:58:07.201Z,27.30
2017-07-04T10:00:36.213Z,27.40
2017-07-04T10:03:05.269Z,26.30
2017-07-04T10:05:34.245Z,25.30
2017-07-04T10:08:03.284Z,24.70
2017-07-04T10:10:32.436Z,25.50
2017-07-04T10:13:01.525Z,26.90
2017-07-04T10:15:30.604Z,28.50
2017-07-04T10:17:59.645Z,29.60
2017-07-04T10:20:28.645Z,29.50
2017-07-04T10:22:57.801Z,28.10
2017-07-04T10:25:27.101Z,26.50
2017-07-04T10:27:56.789Z,25.50
2017-07-04T10:30:26.820Z,24.60
2017-07-04T10:32:55.952Z,24.00
2017-07-04T10:35:25.025Z,24.10
2017-07-04T10:38:08.667Z,24.50
2017-07-04T10:40:37.699Z,26.20
2017-07-04T10:43:06.876Z,27.80
2017-07-04T10:45:35.903Z,27.60
2017-07-04T10:48:04.946Z,27.10
2017-07-04T10:50:35.014Z,26.40
2017-07-04T10:53:04.154Z,26.20
2017-07-04T10:55:33.345Z,25.70
2017-07-04T10:58:02.703Z,25.00
2017-07-04T11:00:31.756Z,24.60
2017-07-04T11:03:00.875Z,24.20
2017-07-04T11:05:29.904Z,25.10
2017-07-04T11:07:58.949Z,25.60
2017-07-04T11:10:28.006Z,25.30
2017-07-04T11:12:57.038Z,25.40
2017-07-04T11:15:26.055Z,25.20
2017-07-04T11:17:55.559Z,24.50
2017-07-04T11:20:24.629Z,24.00
2017-07-04T11:22:53.981Z,24.00
2017-07-04T11:25:23.063Z,24.50
2017-07-04T11:27:52.190Z,26.10
2017-07-04T11:30:21.441Z,27.50
2017-07-04T11:32:50.554Z,27.50
2017-07-04T11:35:19.576Z,27.20
2017-07-04T11:37:48.622Z,27.80
2017-07-04T11:40:17.937Z,28.40
2017-07-04T11:42:47.034Z,28.20
2017-07-04T11:45:16.058Z,28.10
2017-07-04T11:47:45.119Z,27.20
2017-07-04T11:50:14.270Z,26.50
2017-07-04T11:52:43.540Z,26.50
2017-07-04T11:55:12.757Z,26.90
2017-07-04T11:57:41.803Z,27.20
2017-07-04T12:00:10.895Z,27.00
2017-07-04T12:02:40.011Z,26.90
2017-07-04T12:05:09.050Z,26.80
2017-07-04T12:07:38.081Z,26.60
2017-07-04T12:10:07.194Z,26.20
2017-07-04T12:12:36.458Z,25.60
2017-07-04T12:15:05.745Z,25.30
2017-07-04T12:17:34.772Z,24.90
2017-07-04T12:20:03.860Z,24.70
2017-07-04T12:22:32.977Z,24.60
2017-07-04T12:25:13.541Z,24.80
2017-07-04T12:27:42.654Z,25.50
2017-07-04T12:30:11.776Z,25.80
2017-07-04T12:32:40.849Z,25.60
2017-07-04T12:35:10.018Z,25.10
2017-07-04T12:37:40.198Z,24.80
2017-07-04T12:40:09.276Z,24.70
2017-07-04T12:42:38.345Z,24.80
2017-07-04T12:45:07.381Z,25.10
2017-07-04T12:47:36.448Z,25.10
2017-07-04T12:50:05.508Z,24.90
2017-07-04T12:52:34.608Z,24.70
2017-07-04T12:55:03.658Z,24.40
2017-07-04T12:57:32.728Z,24.20
2017-07-04T13:00:01.899Z,24.40
2017-07-04T13:02:31.059Z,24.90
2017-07-04T13:05:00.101Z,25.00
2017-07-04T13:07:29.189Z,25.00
2017-07-04T13:09:59.081Z,25.10
2017-07-04T13:12:28.137Z,24.60
2017-07-04T13:14:57.174Z,24.30
2017-07-04T13:17:26.167Z,24.00
2017-07-04T13:19:55.209Z,24.00
2017-07-04T13:22:24.392Z,23.90
2017-07-04T13:24:53.556Z,23.70
2017-07-04T13:27:22.709Z,23.40
2017-07-04T13:29:51.800Z,23.40
2017-07-04T13:32:20.931Z,23.60
2017-07-04T13:34:50.042Z,23.70
2017-07-04T13:37:19.382Z,23.70
2017-07-04T13:39:48.433Z,23.70
2017-07-04T13:42:17.487Z,23.60
2017-07-04T13:44:46.517Z,23.70
2017-07-04T13:47:15.506Z,23.60
2017-07-04T13:49:44.503Z,23.50
2017-07-04T13:52:13.620Z,23.40
2017-07-04T13:54:43.611Z,23.10
2017-07-04T13:57:12.795Z,23.00
2017-07-04T13:59:42.806Z,23.00
2017-07-04T14:02:11.901Z,22.90
2017-07-04T14:04:40.982Z,22.90
2017-07-04T14:07:10.030Z,22.80
2017-07-04T14:09:39.129Z,22.60
2017-07-04T14:12:08.210Z,22.60
2017-07-04T14:14:37.181Z,22.60
2017-07-04T14:17:06.289Z,22.50
2017-07-04T14:19:35.307Z,22.40
2017-07-04T14:22:04.318Z,22.20
2017-07-04T14:24:33.363Z,22.20
2017-07-04T14:27:02.465Z,22.00
2017-07-04T14:29:31.530Z,22.10
2017-07-04T14:32:00.557Z,22.20
2017-07-04T14:34:35.839Z,22.10
2017-07-04T14:37:04.953Z,22.20
2017-07-04T14:39:33.983Z,22.20
2017-07-04T14:42:03.190Z,22.40
2017-07-04T14:44:32.474Z,22.90
2017-07-04T14:47:01.646Z,23.20
2017-07-04T14:49:31.491Z,23.20
2017-07-04T14:52:00.639Z,23.20
2017-07-04T14:54:29.609Z,23.20
2017-07-04T14:56:58.766Z,23.30
2017-07-04T14:59:27.809Z,23.10
2017-07-04T15:01:56.927Z,22.90
2017-07-04T15:04:26.268Z,22.80
2017-07-04T15:06:55.391Z,22.70
2017-07-04T15:09:24.618Z,22.60
2017-07-04T15:11:53.733Z,22.50
2017-07-04T15:14:22.856Z,22.50
2017-07-04T15:16:52.022Z,22.40
2017-07-04T15:19:21.590Z,22.40
2017-07-04T15:21:50.924Z,22.60
2017-07-04T15:24:20.088Z,22.70
2017-07-04T15:26:49.162Z,22.70
2017-07-04T15:29:19.113Z,22.80
2017-07-04T15:31:48.222Z,22.80
2017-07-04T15:34:17.298Z,22.70
2017-07-04T15:36:46.577Z,22.60
2017-07-04T15:39:15.695Z,22.40
2017-07-04T15:41:44.759Z,22.30
2017-07-04T15:44:13.862Z,22.30
2017-07-04T15:46:42.901Z,22.30
2017-07-04T15:49:12.051Z,22.40
2017-07-04T15:51:41.031Z,22.40
2017-07-04T15:54:10.051Z,22.30
2017-07-04T15:56:39.099Z,22.20
2017-07-04T15:59:08.142Z,22.10
2017-07-04T16:01:37.247Z,22.10
2017-07-04T16:04:06.402Z,22.10
2017-07-04T16:06:35.564Z,22.20
2017-07-04T16:09:04.850Z,22.30
2017-07-04T16:11:33.853Z,22.30
2017-07-04T16:14:02.855Z,22.30
2017-07-04T16:16:31.897Z,22.40
2017-07-04T16:19:00.920Z,22.30
2017-07-04T16:21:29.980Z,22.20
2017-07-04T16:23:58.974Z,22.10
2017-07-04T16:26:27.969Z,22.10
2017-07-04T16:28:57.031Z,22.10
2017-07-04T16:31:26.069Z,22.00
2017-07-04T16:33:55.108Z,22.00
2017-07-04T16:36:24.121Z,22.00
2017-07-04T16:38:53.143Z,22.10
2017-07-04T16:41:22.190Z,22.00
2017-07-04T16:43:51.206Z,21.90
2017-07-04T16:46:20.197Z,21.90
2017-07-04T16:48:49.187Z,21.80
2017-07-04T16:51:18.230Z,21.80
2017-07-04T16:53:47.395Z,21.80
2017-07-04T16:56:16.513Z,21.70
2017-07-04T16:58:45.528Z,21.60
2017-07-04T17:01:14.671Z,21.50
2017-07-04T17:03:43.665Z,21.40
2017-07-04T17:06:12.945Z,21.30
2017-07-04T17:08:41.950Z,21.30
2017-07-04T17:11:10.999Z,21.30
2017-07-04T17:13:40.063Z,21.20
2017-07-04T17:16:16.240Z,21.30
2017-07-04T17:18:45.377Z,21.20
2017-07-04T17:21:14.528Z,21.10
2017-07-04T17:23:43.587Z,21.00
2017-07-04T17:26:13.131Z,20.90
2017-07-04T17:28:42.304Z,20.90
2017-07-04T17:31:11.344Z,20.90
2017-07-04T17:33:40.663Z,20.90
2017-07-04T17:36:09.861Z,21.00
2017-07-04T17:38:38.961Z,21.10
2017-07-04T17:41:07.983Z,21.30
2017-07-04T17:43:37.365Z,21.30
2017-07-04T17:46:13.514Z,21.20
2017-07-04T17:48:42.552Z,21.20
2017-07-04T17:51:11.552Z,21.20
2017-07-04T17:53:40.733Z,21.10
2017-07-04T17:56:09.694Z,21.00
2017-07-04T17:58:38.762Z,21.00
2017-07-04T18:01:07.926Z,20.90
2017-07-04T18:03:37.130Z,20.90
2017-07-04T18:06:11.594Z,20.80
2017-07-04T18:08:40.611Z,20.80
2017-07-04T18:11:09.643Z,20.80
2017-07-04T18:13:38.699Z,20.70
2017-07-04T18:16:07.755Z,20.70
2017-07-04T18:18:36.825Z,20.70
2017-07-04T18:21:05.953Z,20.60
2017-07-04T18:23:35.054Z,20.50
2017-07-04T18:26:04.126Z,20.30
2017-07-04T18:28:33.198Z,20.30
2017-07-04T18:31:02.239Z,20.30
2017-07-04T18:33:31.417Z,20.20
2017-07-04T18:36:00.495Z,20.20
2017-07-04T18:38:29.631Z,20.10
2017-07-04T18:40:59.246Z,20.10
2017-07-04T18:43:29.654Z,20.10
2017-07-04T18:46:00.742Z,20.00
2017-07-04T18:48:33.489Z,20.00
2017-07-04T18:51:02.621Z,19.90
2017-07-04T18:53:31.675Z,19.90
2017-07-04T18:56:00.710Z,19.80
2017-07-04T18:58:29.755Z,19.80
2017-07-04T19:01:29.348Z,19.70
2017-07-04T19:03:58.539Z,19.70
2017-07-04T19:06:27.649Z,19.70
2017-07-04T19:08:56.789Z,19.50
2017-07-04T19:11:25.861Z,19.30
2017-07-04T19:13:55.154Z,19.30
2017-07-04T19:16:27.385Z,19.20
2017-07-04T19:18:56.616Z,19.20
2017-07-04T19:21:28.708Z,19.10
2017-07-04T19:23:57.936Z,19.00
2017-07-04T19:26:26.936Z,19.00
2017-07-04T19:28:56.329Z,18.90
2017-07-04T19:31:25.388Z,18.90
2017-07-04T19:33:54.440Z,18.80
2017-07-04T19:36:28.911Z,18.70
2017-07-04T19:38:58.020Z,18.50
2017-07-04T19:41:27.215Z,18.40
2017-07-04T19:43:56.284Z,18.30
2017-07-04T19:46:25.307Z,18.10
2017-07-04T19:48:54.421Z,17.90
2017-07-04T19:51:23.547Z,17.90
2017-07-04T19:53:52.751Z,17.80
2017-07-04T19:56:28.338Z,17.70
2017-07-04T19:58:57.522Z,17.80
2017-07-04T20:01:29.997Z,17.70
2017-07-04T20:03:59.174Z,17.80
2017-07-04T20:06:28.754Z,17.80
2017-07-04T20:08:59.408Z,17.70
2017-07-04T20:11:28.802Z,17.70
2017-07-04T20:13:58.032Z,17.50
2017-07-04T20:16:27.076Z,17.40
2017-07-04T20:18:56.139Z,17.40
2017-07-04T20:21:26.819Z,17.40
2017-07-04T20:23:56.151Z,17.20
2017-07-04T20:26:31.544Z,17.20
2017-07-04T20:29:00.675Z,17.10
2017-07-04T20:31:29.919Z,16.80
2017-07-04T20:33:59.128Z,16.60
2017-07-04T20:36:28.187Z,16.60
2017-07-04T20:38:57.235Z,16.60
2017-07-04T20:41:26.638Z,16.50
2017-07-04T20:43:57.189Z,16.60
2017-07-04T20:46:26.366Z,16.50
2017-07-04T20:48:55.437Z,16.50
2017-07-04T20:51:24.465Z,16.40
2017-07-04T20:53:53.433Z,16.40
2017-07-04T20:56:26.361Z,16.30
2017-07-04T20:58:55.391Z,16.20
2017-07-04T21:01:24.473Z,16.20
2017-07-04T21:03:53.585Z,16.20
2017-07-04T21:06:22.587Z,16.20
2017-07-04T21:08:51.570Z,16.20
2017-07-04T21:11:20.585Z,16.10
2017-07-04T21:13:49.573Z,16.00
2017-07-04T21:16:18.610Z,16.00
2017-07-04T21:18:47.665Z,15.90
2017-07-04T21:21:16.760Z,15.90
2017-07-04T21:23:45.842Z,15.90
2017-07-04T21:26:14.865Z,15.80
2017-07-04T21:28:43.895Z,15.70
2017-07-04T21:31:12.928Z,15.70
2017-07-04T21:33:41.960Z,15.70
2017-07-04T21:36:10.930Z,15.50
2017-07-04T21:38:39.932Z,15.30
2017-07-04T21:41:09.001Z,15.30
2017-07-04T21:43:38.595Z,15.30
2017-07-04T21:46:11.224Z,15.30
2017-07-04T21:48:41.199Z,15.30
2017-07-04T21:51:10.679Z,15.20
2017-07-04T21:53:40.587Z,15.10
2017-07-04T21:56:09.962Z,15.10
2017-07-04T21:58:39.390Z,15.10
2017-07-04T22:01:08.395Z,15.10
2017-07-04T22:03:37.390Z,15.10
2017-07-04T22:06:06.361Z,15.10
2017-07-04T22:08:35.340Z,15.10
2017-07-04T22:11:04.605Z,15.10
2017-07-04T22:13:33.636Z,15.10
2017-07-04T22:16:02.742Z,14.90
2017-07-04T22:18:31.741Z,14.80
2017-07-04T22:21:00.710Z,14.70
2017-07-04T22:23:29.697Z,14.70
2017-07-04T22:25:58.653Z,14.70
2017-07-04T22:28:27.662Z,14.70
2017-07-04T22:30:56.698Z,14.60
2017-07-04T22:33:25.680Z,14.70
2017-07-04T22:35:54.739Z,14.70
2017-07-04T22:38:23.783Z,14.60
2017-07-04T22:40:52.784Z,14.60
2017-07-04T22:43:21.767Z,14.60
2017-07-04T22:45:50.752Z,14.50
2017-07-04T22:48:20.055Z,14.50
2017-07-04T22:50:49.063Z,14.60
2017-07-04T22:53:19.447Z,14.60
2017-07-04T22:55:48.467Z,14.50
2017-07-04T22:58:17.434Z,14.50
2017-07-04T23:00:46.439Z,14.50
2017-07-04T23:03:15.580Z,14.50
2017-07-04T23:05:44.617Z,14.50
2017-07-04T23:08:13.633Z,14.50
2017-07-04T23:10:42.766Z,14.40
2017-07-04T23:13:11.735Z,14.30
2017-07-04T23:15:40.792Z,14.20
2017-07-04T23:18:09.814Z,14.10
2017-07-04T23:20:38.785Z,14.20
2017-07-04T23:23:07.762Z,14.30
2017-07-04T23:25:36.783Z,14.40
2017-07-04T23:28:05.748Z,14.40
2017-07-04T23:30:34.736Z,14.40
2017-07-04T23:33:06.631Z,14.40
2017-07-04T23:35:35.610Z,14.40
2017-07-04T23:38:04.626Z,14.40
2017-07-04T23:40:33.858Z,14.40
2017-07-04T23:43:03.102Z,14.40
2017-07-04T23:45:32.245Z,14.30
2017-07-04T23:48:01.361Z,14.40
2017-07-04T23:50:30.415Z,14.50
2017-07-04T23:52:59.499Z,14.40
2017-07-04T23:55:28.499Z,14.40
2017-07-04T23:57:57.492Z,14.40
